createdAt,value
2023-04-09T00:09:01.257Z,0.00
2023-04-09T00:19:01.459Z,0.00
2023-04-09T00:29:01.691Z,0.00
2023-04-09T00:39:01.890Z,0.00
2023-04-09T00:49:02.104Z,0.00
2023-04-09T00:59:02.306Z,0.00
2023-04-09T01:09:02.531Z,0.00
2023-04-09T01:19:02.741Z,0.00
2023-04-09T01:29:02.958Z,0.00
2023-04-09T01:39:03.307Z,0.00
2023-04-09T01:49:03.318Z,0.00
2023-04-09T01:59:03.525Z,0.00
2023-04-09T02:09:03.707Z,0.00
2023-04-09T02:19:03.930Z,0.00
2023-04-09T02:29:04.140Z,0.00
2023-04-09T02:39:04.361Z,0.00
2023-04-09T02:49:04.596Z,0.00
2023-04-09T02:59:04.888Z,0.00
2023-04-09T03:09:05.091Z,0.00
2023-04-09T03:19:05.338Z,0.00
2023-04-09T03:29:05.338Z,0.00
2023-04-09T03:39:05.526Z,0.00
2023-04-09T03:49:05.750Z,0.00
2023-04-09T03:59:05.939Z,0.00
2023-04-09T04:09:06.144Z,0.00
2023-04-09T04:19:06.348Z,0.00
2023-04-09T04:29:06.580Z,0.00
2023-04-09T04:39:06.782Z,0.00
2023-04-09T04:49:06.995Z,0.00
2023-04-09T04:59:07.190Z,0.00
2023-04-09T05:09:07.424Z,0.00
2023-04-09T05:19:07.618Z,0.00
2023-04-09T05:29:07.827Z,5.62
2023-04-09T05:39:08.037Z,5.62
2023-04-09T05:49:08.242Z,5.62
2023-04-09T05:59:08.449Z,11.25
2023-04-09T06:09:08.654Z,11.25
2023-04-09T06:19:08.862Z,11.25
2023-04-09T06:29:09.074Z,16.88
2023-04-09T06:39:09.285Z,16.88
2023-04-09T06:49:09.505Z,22.50
2023-04-09T06:59:09.719Z,22.50
2023-04-09T07:09:10.048Z,28.12
2023-04-09T07:19:10.090Z,28.12
2023-04-09T07:29:10.282Z,39.38
2023-04-09T07:39:10.462Z,56.25
2023-04-09T07:49:10.661Z,50.62
2023-04-09T07:59:10.887Z,84.38
2023-04-09T08:09:11.118Z,101.25
2023-04-09T08:19:11.302Z,106.88
2023-04-09T08:29:11.500Z,112.50
2023-04-09T08:39:11.701Z,129.38
2023-04-09T08:49:11.906Z,135.00
2023-04-09T08:59:12.099Z,140.62
2023-04-09T09:09:12.292Z,146.25
2023-04-09T09:19:12.520Z,146.25
2023-04-09T09:29:12.723Z,146.25
2023-04-09T09:39:12.916Z,151.88
2023-04-09T09:49:13.104Z,151.88
2023-04-09T09:59:13.307Z,157.50
2023-04-09T10:09:13.523Z,163.12
2023-04-09T10:19:13.737Z,163.12
2023-04-09T10:29:13.951Z,174.38
2023-04-09T10:39:14.133Z,180.00
2023-04-09T10:49:14.326Z,180.00
2023-04-09T10:59:14.531Z,185.62
2023-04-09T11:09:14.738Z,174.38
2023-04-09T11:19:14.924Z,185.62
2023-04-09T11:29:15.136Z,180.00
2023-04-09T11:39:15.334Z,191.25
2023-04-09T11:49:15.701Z,196.88
2023-04-09T11:59:15.730Z,185.62
2023-04-09T12:09:15.939Z,185.62
2023-04-09T12:19:16.138Z,146.25
2023-04-09T12:29:16.366Z,196.88
2023-04-09T12:39:16.599Z,191.25
2023-04-09T12:49:16.817Z,191.25
2023-04-09T12:59:17.011Z,191.25
2023-04-09T13:09:17.284Z,185.62
2023-04-09T13:19:17.529Z,185.62
2023-04-09T13:29:17.734Z,180.00
2023-04-09T13:39:17.947Z,185.62
2023-04-09T13:49:18.211Z,180.00
2023-04-09T13:59:18.391Z,180.00
2023-04-09T14:09:18.587Z,180.00
2023-04-09T14:19:18.810Z,174.38
2023-04-09T14:29:19.046Z,174.38
2023-04-09T14:39:19.262Z,168.75
2023-04-09T14:49:19.456Z,168.75
2023-04-09T14:59:19.664Z,163.12
2023-04-09T15:09:19.865Z,163.12
2023-04-09T15:19:20.078Z,157.50
2023-04-09T15:29:20.289Z,146.25
2023-04-09T15:39:20.543Z,135.00
2023-04-09T15:49:20.719Z,123.75
2023-04-09T15:59:20.957Z,112.50
2023-04-09T16:09:21.152Z,101.25
2023-04-09T16:19:21.434Z,61.88
2023-04-09T16:29:21.859Z,16.88
2023-04-09T16:39:21.853Z,11.25
2023-04-09T16:49:22.061Z,11.25
2023-04-09T16:59:22.292Z,5.62
2023-04-09T17:09:22.502Z,5.62
2023-04-09T17:19:22.695Z,5.62
2023-04-09T17:29:22.887Z,5.62
2023-04-09T17:39:23.059Z,0.00
2023-04-09T17:49:23.273Z,0.00
2023-04-09T17:59:23.467Z,0.00
2023-04-09T18:09:23.662Z,0.00
2023-04-09T18:19:23.864Z,0.00
2023-04-09T18:29:24.076Z,0.00
2023-04-09T18:39:24.283Z,0.00
2023-04-09T18:49:24.532Z,0.00
2023-04-09T18:59:24.776Z,0.00
2023-04-09T19:09:25.132Z,0.00
2023-04-09T19:19:25.208Z,0.00
2023-04-09T19:29:25.420Z,0.00
2023-04-09T19:39:25.665Z,0.00
2023-04-09T19:49:25.720Z,0.00
2023-04-09T19:59:25.924Z,0.00
2023-04-09T20:09:26.114Z,0.00
2023-04-09T20:19:26.314Z,0.00
2023-04-09T20:29:26.697Z,0.00
2023-04-09T20:39:26.686Z,0.00
2023-04-09T20:49:26.883Z,0.00
2023-04-09T20:59:27.079Z,0.00
2023-04-09T21:09:27.284Z,0.00
2023-04-09T21:19:27.504Z,0.00
2023-04-09T21:29:27.685Z,0.00
2023-04-09T21:39:27.889Z,0.00
2023-04-09T21:49:28.120Z,0.00
2023-04-09T21:59:28.322Z,0.00
2023-04-09T22:09:28.538Z,0.00
2023-04-09T22:19:28.738Z,0.00
2023-04-09T22:29:28.950Z,0.00
2023-04-09T22:39:29.144Z,0.00
2023-04-09T22:49:29.333Z,0.00
2023-04-09T22:59:39.029Z,0.00
2023-04-09T23:09:30.823Z,0.00
2023-04-09T23:19:29.998Z,0.00
2023-04-09T23:29:30.193Z,0.00
2023-04-09T23:39:30.415Z,0.00
2023-04-09T23:49:30.636Z,0.00
2023-04-09T23:59:30.832Z,0.00
